Time;durP1;ratioP1;P1;durP2;ratioP2;P2;SDS_P1;SDS_P2;PMS_P1;PMS_P2;Temp;Humidity;BMP_temperature;BMP_pressure;BME280_temperature;BME280_humidity;BME280_pressure;Samples;Min_cycle;Max_cycle;Signal;HPM_P1;HPM_P2
2021/12/07 00:00:19;;;;;;;23.17;16.27;;;;;;;;;;5016406;28;20399;-65
2021/12/07 00:02:46;;;;;;;20.23;16.33;;;;;;;;;;5016035;28;20403;-65
2021/12/07 00:05:12;;;;;;;18.33;14.63;;;;;;;;;;5014677;28;20427;-65
2021/12/07 00:07:39;;;;;;;15.90;12.90;;;;;;;;;;5014467;28;20419;-65
2021/12/07 00:10:06;;;;;;;16.33;12.20;;;;;;;;;;5014468;28;20423;-65
2021/12/07 00:12:36;;;;;;;15.67;12.73;;;;;;;;;;5014286;28;20498;-65
2021/12/07 00:15:03;;;;;;;19.63;13.30;;;;;;;;;;5015798;28;20395;-65
2021/12/07 00:17:29;;;;;;;20.97;16.77;;;;;;;;;;5015442;28;20462;-65
2021/12/07 00:19:55;;;;;;;19.90;16.53;;;;;;;;;;5015678;28;20407;-65
2021/12/07 00:22:21;;;;;;;22.77;17.43;;;;;;;;;;5014289;28;20422;-65
2021/12/07 00:24:47;;;;;;;22.17;18.47;;;;;;;;;;5015605;28;20683;-65
2021/12/07 00:27:13;;;;;;;25.07;19.70;;;;;;;;;;5015515;28;20202;-65
2021/12/07 00:29:39;;;;;;;23.67;19.30;;;;;;;;;;5013770;28;20204;-65
2021/12/07 00:32:18;;;;;;;26.50;20.13;;;;;;;;;;5013999;28;20195;-65
2021/12/07 00:35:16;;;;;;;24.63;19.97;;;;;;;;;;5015360;28;20400;-66
2021/12/07 00:37:44;;;;;;;24.93;19.57;;;;;;;;;;5014186;28;20604;-65
2021/12/07 00:40:12;;;;;;;25.13;19.17;;;;;;;;;;5015922;28;20411;-65
2021/12/07 00:42:38;;;;;;;23.93;17.47;;;;;;;;;;5016457;28;20461;-65
2021/12/07 00:45:05;;;;;;;22.43;17.50;;;;;;;;;;5016122;28;20407;-65
2021/12/07 00:47:30;;;;;;;24.97;18.30;;;;;;;;;;5014693;28;20270;-65
2021/12/07 00:49:57;;;;;;;21.17;16.47;;;;;;;;;;5015051;28;20438;-65
2021/12/07 00:52:23;;;;;;;22.67;16.93;;;;;;;;;;5014833;28;20562;-65
2021/12/07 00:54:49;;;;;;;20.43;14.57;;;;;;;;;;5013773;28;20419;-65
2021/12/07 00:57:15;;;;;;;19.33;13.93;;;;;;;;;;5015472;28;20553;-66
2021/12/07 00:59:41;;;;;;;17.10;12.30;;;;;;;;;;5013680;28;20220;-65
2021/12/07 01:02:07;;;;;;;16.07;11.63;;;;;;;;;;5013689;28;20418;-65
2021/12/07 01:04:33;;;;;;;14.67;10.60;;;;;;;;;;5013756;28;20203;-64
2021/12/07 01:07:06;;;;;;;13.97;11.07;;;;;;;;;;5013310;28;20732;-65
2021/12/07 01:25:37;;;;;;;12.10;9.77;;;;;;;;;;5015124;28;20399;-64
2021/12/07 01:28:12;;;;;;;12.13;9.80;;;;;;;;;;5014875;28;21030;-66
2021/12/07 01:30:54;;;;;;;16.10;11.77;;;;;;;;;;5014152;28;20401;-65
2021/12/07 01:36:22;;;;;;;14.53;11.43;;;;;;;;;;5014669;28;20390;-65
2021/12/07 01:59:55;;;;;;;19.77;15.07;;;;;;;;;;5014300;28;20430;-65
2021/12/07 02:02:22;;;;;;;24.23;17.40;;;;;;;;;;5017278;28;20436;-65
2021/12/07 02:04:48;;;;;;;23.00;17.37;;;;;;;;;;5019536;28;20460;-65
2021/12/07 02:07:14;;;;;;;23.37;18.20;;;;;;;;;;5019167;28;20522;-65
2021/12/07 02:09:47;;;;;;;22.70;16.63;;;;;;;;;;5020620;28;20545;-65
2021/12/07 02:12:14;;;;;;;24.33;17.87;;;;;;;;;;5020933;28;20399;-65
2021/12/07 02:14:40;;;;;;;23.63;17.33;;;;;;;;;;5019176;28;20411;-65
2021/12/07 02:17:09;;;;;;;22.87;18.43;;;;;;;;;;5020246;28;20974;-65
2021/12/07 02:19:35;;;;;;;22.47;18.40;;;;;;;;;;5020478;28;20427;-65
2021/12/07 02:22:02;;;;;;;24.70;19.73;;;;;;;;;;5020233;28;20410;-65
2021/12/07 02:24:28;;;;;;;24.77;18.80;;;;;;;;;;5020689;28;20494;-65
2021/12/07 02:26:54;;;;;;;26.30;19.57;;;;;;;;;;5019080;28;20443;-65
2021/12/07 02:29:21;;;;;;;25.33;19.03;;;;;;;;;;5020311;28;20434;-65
2021/12/07 02:31:48;;;;;;;26.10;18.90;;;;;;;;;;5020899;28;20415;-65
2021/12/07 02:34:14;;;;;;;27.70;19.47;;;;;;;;;;5020105;28;20903;-65
2021/12/07 02:36:41;;;;;;;25.93;19.23;;;;;;;;;;5020454;28;20422;-65
2021/12/07 02:39:08;;;;;;;25.67;19.37;;;;;;;;;;5019874;28;20470;-64
2021/12/07 02:41:35;;;;;;;23.47;18.93;;;;;;;;;;5020125;28;20429;-65
2021/12/07 02:44:01;;;;;;;29.33;19.67;;;;;;;;;;5019675;28;20414;-65
2021/12/07 02:46:27;;;;;;;31.53;21.27;;;;;;;;;;5020395;28;20426;-65
2021/12/07 02:48:53;;;;;;;32.00;20.90;;;;;;;;;;5021642;28;20430;-65
2021/12/07 02:51:19;;;;;;;26.43;20.37;;;;;;;;;;5020584;28;20414;-65
2021/12/07 02:53:47;;;;;;;26.03;19.23;;;;;;;;;;5020297;28;20446;-65
2021/12/07 02:56:13;;;;;;;26.87;18.70;;;;;;;;;;5020338;28;20433;-65
2021/12/07 02:58:42;;;;;;;25.87;16.77;;;;;;;;;;5018333;28;20478;-65
2021/12/07 03:01:14;;;;;;;26.90;18.20;;;;;;;;;;5020115;28;20310;-65
2021/12/07 03:03:52;;;;;;;27.17;16.17;;;;;;;;;;5020284;28;20383;-65
2021/12/07 03:27:57;;;;;;;31.17;16.57;;;;;;;;;;5017020;28;20522;-65
2021/12/07 03:30:23;;;;;;;35.93;20.10;;;;;;;;;;5016450;28;20211;-65
2021/12/07 03:32:49;;;;;;;29.93;19.47;;;;;;;;;;5015094;28;20194;-65
2021/12/07 03:35:16;;;;;;;32.27;20.17;;;;;;;;;;5016359;28;20417;-65
2021/12/07 03:37:42;;;;;;;29.87;19.93;;;;;;;;;;5015052;28;20294;-65
2021/12/07 03:40:09;;;;;;;34.17;20.57;;;;;;;;;;5015980;28;20796;-65
2021/12/07 03:42:35;;;;;;;35.13;20.43;;;;;;;;;;5016164;28;20184;-65
2021/12/07 03:45:01;;;;;;;37.70;21.70;;;;;;;;;;5014856;28;20432;-65
2021/12/07 03:47:27;;;;;;;40.23;21.43;;;;;;;;;;5014707;28;20477;-65
2021/12/07 03:49:53;;;;;;;37.17;21.10;;;;;;;;;;5014709;28;20418;-65
2021/12/07 03:52:19;;;;;;;32.83;19.93;;;;;;;;;;5016531;28;20184;-65
2021/12/07 03:54:45;;;;;;;32.70;20.10;;;;;;;;;;5014719;28;20215;-65
2021/12/07 03:57:11;;;;;;;30.37;18.87;;;;;;;;;;5014707;28;20207;-65
2021/12/07 03:59:37;;;;;;;32.53;19.93;;;;;;;;;;5014254;28;20310;-65
2021/12/07 04:02:03;;;;;;;32.10;20.13;;;;;;;;;;5015746;28;20230;-65
2021/12/07 04:04:29;;;;;;;27.70;18.47;;;;;;;;;;5014563;28;20184;-65
2021/12/07 04:06:55;;;;;;;25.53;16.93;;;;;;;;;;5015765;28;20708;-66
2021/12/07 04:09:21;;;;;;;33.47;20.47;;;;;;;;;;5015686;28;20192;-65
2021/12/07 04:11:47;;;;;;;33.43;20.50;;;;;;;;;;5015701;28;20175;-65
2021/12/07 04:14:13;;;;;;;34.17;21.53;;;;;;;;;;5014554;28;20270;-65
2021/12/07 04:16:39;;;;;;;33.67;21.00;;;;;;;;;;5014539;28;20187;-65
2021/12/07 04:19:05;;;;;;;37.70;22.90;;;;;;;;;;5031397;23;20208;-65
2021/12/07 04:21:31;;;;;;;39.77;21.90;;;;;;;;;;5018572;28;20658;-62
2021/12/07 04:23:57;;;;;;;37.67;21.10;;;;;;;;;;5019981;28;20469;-64
2021/12/07 04:26:23;;;;;;;39.80;21.73;;;;;;;;;;5018629;28;20915;-62
2021/12/07 04:28:49;;;;;;;36.13;22.23;;;;;;;;;;5019942;28;20176;-62
2021/12/07 04:31:15;;;;;;;33.37;21.33;;;;;;;;;;5019893;28;20203;-62
2021/12/07 04:33:41;;;;;;;27.93;19.97;;;;;;;;;;5018099;28;20175;-61
2021/12/07 04:36:08;;;;;;;32.07;21.00;;;;;;;;;;5018994;28;20187;-63
2021/12/07 04:38:34;;;;;;;33.50;20.40;;;;;;;;;;5019559;28;20208;-66
2021/12/07 04:41:00;;;;;;;35.33;19.60;;;;;;;;;;5018201;28;20434;-62
2021/12/07 04:43:27;;;;;;;38.53;21.20;;;;;;;;;;5019462;28;20506;-62
2021/12/07 04:46:21;;;;;;;38.23;19.47;;;;;;;;;;5019405;28;20422;-63
2021/12/07 04:59:28;;;;;;;32.83;16.87;;;;;;;;;;5018457;28;20476;-62
2021/12/07 05:01:54;;;;;;;31.63;17.40;;;;;;;;;;5018856;28;20901;-62
2021/12/07 05:04:25;;;;;;;37.80;16.10;;;;;;;;;;5017890;28;20191;-62
2021/12/07 05:06:56;;;;;;;27.37;14.67;;;;;;;;;;5018488;28;20192;-62
2021/12/07 05:14:32;;;;;;;30.23;12.87;;;;;;;;;;5018844;28;20388;-61
2021/12/07 05:38:39;;;;;;;28.87;10.20;;;;;;;;;;5018367;28;20549;-61
2021/12/07 05:41:09;;;;;;;30.70;9.33;;;;;;;;;;5016371;28;20447;-62
2021/12/07 05:43:36;;;;;;;33.80;10.67;;;;;;;;;;5016584;28;20186;-62
2021/12/07 05:46:03;;;;;;;38.27;10.43;;;;;;;;;;5016871;28;20454;-62
2021/12/07 05:48:29;;;;;;;26.07;9.80;;;;;;;;;;5018028;28;20441;-61
2021/12/07 05:50:55;;;;;;;27.90;10.07;;;;;;;;;;5017947;28;20439;-61
2021/12/07 05:53:21;;;;;;;34.57;10.77;;;;;;;;;;5017939;28;20472;-63
2021/12/07 05:55:47;;;;;;;33.00;10.60;;;;;;;;;;5018317;28;20461;-63
2021/12/07 05:58:14;;;;;;;31.93;10.33;;;;;;;;;;5018049;28;20199;-62
2021/12/07 06:00:43;;;;;;;36.60;10.47;;;;;;;;;;5016374;28;20431;-62
2021/12/07 06:03:10;;;;;;;26.63;11.40;;;;;;;;;;5017824;28;20407;-63
2021/12/07 06:05:36;;;;;;;22.70;8.87;;;;;;;;;;5017759;28;20446;-61
2021/12/07 06:08:03;;;;;;;31.67;10.33;;;;;;;;;;5017118;28;20423;-62
2021/12/07 06:10:29;;;;;;;25.23;9.53;;;;;;;;;;5017777;28;20883;-62
2021/12/07 06:12:55;;;;;;;32.63;17.40;;;;;;;;;;5017898;28;20451;-61
2021/12/07 06:15:23;;;;;;;45.87;19.27;;;;;;;;;;5018131;28;20422;-62
2021/12/07 06:17:50;;;;;;;80.23;33.60;;;;;;;;;;5017451;28;20200;-66
2021/12/07 06:20:16;;;;;;;49.93;21.27;;;;;;;;;;5017016;28;20451;-61
2021/12/07 06:22:42;;;;;;;35.20;18.07;;;;;;;;;;5017577;28;20411;-62
2021/12/07 06:25:10;;;;;;;36.17;11.60;;;;;;;;;;5015786;28;20502;-63
2021/12/07 06:27:36;;;;;;;22.03;9.67;;;;;;;;;;5016926;28;20176;-63
2021/12/07 06:30:02;;;;;;;25.93;9.80;;;;;;;;;;5016688;28;20426;-63
2021/12/07 06:32:28;;;;;;;32.33;9.87;;;;;;;;;;5017830;28;20482;-61
2021/12/07 06:34:54;;;;;;;34.47;10.37;;;;;;;;;;5017009;28;20411;-62
2021/12/07 06:37:20;;;;;;;29.17;9.37;;;;;;;;;;5017400;28;20236;-61
2021/12/07 06:39:46;;;;;;;23.87;8.97;;;;;;;;;;5018302;28;20196;-61
2021/12/07 06:42:12;;;;;;;32.13;9.67;;;;;;;;;;5017533;28;20219;-62
2021/12/07 06:44:39;;;;;;;26.10;9.40;;;;;;;;;;5017089;28;20172;-62
2021/12/07 06:47:05;;;;;;;29.97;9.83;;;;;;;;;;5015980;28;20426;-61
2021/12/07 06:49:31;;;;;;;38.03;9.60;;;;;;;;;;5018963;28;20457;-63
2021/12/07 06:51:58;;;;;;;31.83;8.87;;;;;;;;;;5021384;28;20407;-62
2021/12/07 06:54:25;;;;;;;26.67;9.27;;;;;;;;;;5020709;28;20211;-62
2021/12/07 06:56:52;;;;;;;42.00;10.70;;;;;;;;;;5020786;28;20422;-63
2021/12/07 06:59:18;;;;;;;27.27;12.97;;;;;;;;;;5019772;28;20447;-63
2021/12/07 07:01:44;;;;;;;27.93;13.73;;;;;;;;;;5019114;28;20423;-61
2021/12/07 07:04:12;;;;;;;26.20;10.07;;;;;;;;;;5020705;28;20407;-62
2021/12/07 07:06:39;;;;;;;30.70;9.53;;;;;;;;;;5020359;28;20486;-62
2021/12/07 07:09:05;;;;;;;25.63;12.53;;;;;;;;;;5018560;28;20419;-62
2021/12/07 07:11:32;;;;;;;25.03;9.57;;;;;;;;;;5018459;28;20407;-62
2021/12/07 07:13:58;;;;;;;24.37;9.40;;;;;;;;;;5019214;28;20419;-63
2021/12/07 07:16:24;;;;;;;25.93;10.23;;;;;;;;;;5018665;28;20415;-62
2021/12/07 07:18:50;;;;;;;30.73;11.30;;;;;;;;;;5020434;28;20980;-62
2021/12/07 07:21:16;;;;;;;27.90;11.43;;;;;;;;;;5019758;28;20219;-62
2021/12/07 07:23:43;;;;;;;26.23;9.53;;;;;;;;;;5020207;28;20821;-61
2021/12/07 07:26:09;;;;;;;31.07;9.70;;;;;;;;;;5019818;28;20407;-61
2021/12/07 07:28:35;;;;;;;23.57;9.17;;;;;;;;;;5019485;28;20929;-63
2021/12/07 07:31:03;;;;;;;25.93;9.43;;;;;;;;;;5017908;28;20466;-63
2021/12/07 07:33:29;;;;;;;29.70;9.57;;;;;;;;;;5019904;28;20419;-63
2021/12/07 07:35:55;;;;;;;21.87;9.47;;;;;;;;;;5018055;28;20458;-63
2021/12/07 07:38:21;;;;;;;30.97;9.97;;;;;;;;;;5019983;28;20462;-62
2021/12/07 07:40:48;;;;;;;34.83;10.20;;;;;;;;;;5019830;28;20427;-60
2021/12/07 07:43:16;;;;;;;30.53;10.83;;;;;;;;;;5018604;28;20925;-62
2021/12/07 07:45:42;;;;;;;26.30;9.60;;;;;;;;;;5018367;28;20518;-62
2021/12/07 07:48:08;;;;;;;29.37;11.57;;;;;;;;;;5018246;28;20422;-61
2021/12/07 07:50:34;;;;;;;32.07;11.47;;;;;;;;;;5019487;28;20439;-62
2021/12/07 07:53:00;;;;;;;27.77;11.57;;;;;;;;;;5018610;28;20325;-61
2021/12/07 07:55:26;;;;;;;31.93;12.53;;;;;;;;;;5020301;28;20451;-61
2021/12/07 07:57:52;;;;;;;35.10;14.90;;;;;;;;;;5018566;28;20208;-63
2021/12/07 08:00:19;;;;;;;35.93;15.07;;;;;;;;;;5017134;28;20199;-62
2021/12/07 08:02:45;;;;;;;35.23;14.80;;;;;;;;;;5020019;28;20180;-61
2021/12/07 08:05:12;;;;;;;44.17;15.90;;;;;;;;;;5018066;28;20412;-61
2021/12/07 08:07:39;;;;;;;31.87;15.67;;;;;;;;;;5019191;28;20413;-62
2021/12/07 08:10:06;;;;;;;41.20;17.63;;;;;;;;;;5019520;28;20438;-61
2021/12/07 08:12:32;;;;;;;36.57;17.53;;;;;;;;;;5019135;28;20794;-62
2021/12/07 08:14:58;;;;;;;44.33;19.13;;;;;;;;;;5018709;28;20410;-62
2021/12/07 08:17:24;;;;;;;39.30;18.33;;;;;;;;;;5018634;28;20721;-64
2021/12/07 08:19:50;;;;;;;48.83;19.00;;;;;;;;;;5018050;28;20265;-62
2021/12/07 08:22:16;;;;;;;46.77;19.27;;;;;;;;;;5017963;28;20501;-66
2021/12/07 08:24:42;;;;;;;50.57;21.73;;;;;;;;;;5016703;28;20180;-62
2021/12/07 08:27:08;;;;;;;39.13;19.10;;;;;;;;;;5017970;28;20530;-62
2021/12/07 08:29:34;;;;;;;44.17;18.47;;;;;;;;;;5016777;28;20191;-63
2021/12/07 08:32:00;;;;;;;45.47;19.57;;;;;;;;;;5018916;28;20207;-61
2021/12/07 08:34:26;;;;;;;50.00;19.83;;;;;;;;;;5017656;28;20180;-62
2021/12/07 08:36:52;;;;;;;44.47;19.43;;;;;;;;;;5018568;28;20417;-62
2021/12/07 08:39:18;;;;;;;40.33;19.13;;;;;;;;;;5018444;28;20255;-62
2021/12/07 08:41:44;;;;;;;47.13;20.20;;;;;;;;;;5016864;28;20211;-62
2021/12/07 08:44:11;;;;;;;43.50;22.17;;;;;;;;;;5016902;28;20415;-66
2021/12/07 08:46:37;;;;;;;39.63;20.40;;;;;;;;;;5018160;28;20490;-62
2021/12/07 08:49:03;;;;;;;42.33;19.53;;;;;;;;;;5017933;28;20428;-62
2021/12/07 08:51:30;;;;;;;39.20;20.33;;;;;;;;;;5017973;28;20406;-61
2021/12/07 08:59:39;;;;;;;35.60;17.70;;;;;;;;;;5017849;28;20953;-62
2021/12/07 09:02:05;;;;;;;40.87;17.47;;;;;;;;;;5016350;28;20391;-62
2021/12/07 09:04:31;;;;;;;37.27;17.70;;;;;;;;;;5018089;28;20461;-62
2021/12/07 09:06:57;;;;;;;30.87;15.33;;;;;;;;;;5017293;28;20660;-61
2021/12/07 09:09:23;;;;;;;39.50;17.33;;;;;;;;;;5015925;28;20486;-62
2021/12/07 09:11:49;;;;;;;41.33;19.40;;;;;;;;;;5016176;28;20868;-62
2021/12/07 09:14:18;;;;;;;36.87;14.97;;;;;;;;;;5015385;28;20498;-62
2021/12/07 09:16:45;;;;;;;29.87;13.57;;;;;;;;;;5015582;28;20786;-63
2021/12/07 09:19:11;;;;;;;27.63;11.60;;;;;;;;;;5015238;28;20506;-62
2021/12/07 09:21:37;;;;;;;20.53;10.03;;;;;;;;;;5016540;28;21018;-62
2021/12/07 09:24:03;;;;;;;32.87;11.17;;;;;;;;;;5017154;28;20419;-64
2021/12/07 09:26:30;;;;;;;23.03;10.03;;;;;;;;;;5016394;28;20910;-62
2021/12/07 09:28:56;;;;;;;31.77;10.07;;;;;;;;;;5016947;28;20421;-62
2021/12/07 09:31:22;;;;;;;29.53;11.80;;;;;;;;;;5017585;28;20435;-62
2021/12/07 09:33:48;;;;;;;29.40;10.57;;;;;;;;;;5017055;28;20418;-63
2021/12/07 09:36:15;;;;;;;27.77;9.60;;;;;;;;;;5017235;28;20469;-62
2021/12/07 09:38:41;;;;;;;27.20;9.60;;;;;;;;;;5017092;28;20497;-62
2021/12/07 09:41:08;;;;;;;25.73;9.70;;;;;;;;;;5015111;28;20439;-61
2021/12/07 09:43:34;;;;;;;20.87;8.47;;;;;;;;;;5015243;28;20234;-62
2021/12/07 09:46:00;;;;;;;24.17;8.20;;;;;;;;;;5016574;28;20399;-62
2021/12/07 09:48:26;;;;;;;20.63;7.93;;;;;;;;;;5016439;28;20755;-62
2021/12/07 09:50:53;;;;;;;18.63;7.53;;;;;;;;;;5015261;28;20200;-61
2021/12/07 09:53:20;;;;;;;20.53;8.03;;;;;;;;;;5016131;28;20856;-63
2021/12/07 09:55:46;;;;;;;18.30;8.30;;;;;;;;;;5015342;28;20279;-62
2021/12/07 09:58:13;;;;;;;19.17;7.43;;;;;;;;;;5016618;28;20485;-61
2021/12/07 10:00:39;;;;;;;21.93;6.20;;;;;;;;;;5014521;28;20458;-68
2021/12/07 10:03:06;;;;;;;24.80;7.37;;;;;;;;;;5016130;28;20588;-62
2021/12/07 10:05:34;;;;;;;11.77;6.30;;;;;;;;;;5014527;28;20182;-61
2021/12/07 10:08:00;;;;;;;25.60;6.50;;;;;;;;;;5015337;28;20423;-60
2021/12/07 10:10:26;;;;;;;21.30;7.00;;;;;;;;;;5016528;28;20488;-62
2021/12/07 10:12:53;;;;;;;18.07;5.90;;;;;;;;;;5016911;28;20183;-60
2021/12/07 10:15:19;;;;;;;16.53;6.20;;;;;;;;;;5015172;28;20203;-61
2021/12/07 10:17:59;;;;;;;17.60;5.30;;;;;;;;;;5016630;28;20458;-62
2021/12/07 10:20:40;;;;;;;10.87;5.90;;;;;;;;;;5018053;28;20469;-63
2021/12/07 10:23:23;;;;;;;11.37;5.90;;;;;;;;;;5017749;28;20390;-62
2021/12/07 10:25:55;;;;;;;16.23;5.80;;;;;;;;;;5019253;28;20407;-61
2021/12/07 10:28:47;;;;;;;12.53;5.97;;;;;;;;;;5019853;28;20247;-62
2021/12/07 10:31:20;;;;;;;19.10;5.80;;;;;;;;;;5016522;28;20435;-62
2021/12/07 10:33:49;;;;;;;19.37;5.57;;;;;;;;;;5019553;28;20919;-61
2021/12/07 10:36:20;;;;;;;18.33;5.80;;;;;;;;;;5019557;28;20354;-61
2021/12/07 10:38:48;;;;;;;16.47;6.13;;;;;;;;;;5018887;28;21047;-60
2021/12/07 10:41:18;;;;;;;15.33;6.07;;;;;;;;;;5018242;28;20435;-62
2021/12/07 10:43:56;;;;;;;12.00;4.93;;;;;;;;;;5019807;28;20179;-61
2021/12/07 10:46:28;;;;;;;14.80;5.07;;;;;;;;;;5019596;28;20187;-61
2021/12/07 10:49:09;;;;;;;14.80;5.00;;;;;;;;;;5019146;28;20543;-61
2021/12/07 10:51:36;;;;;;;13.90;4.97;;;;;;;;;;5018239;28;20335;-61
2021/12/07 10:54:02;;;;;;;24.33;6.33;;;;;;;;;;5017821;28;20937;-61
2021/12/07 10:56:35;;;;;;;22.90;6.57;;;;;;;;;;5020004;28;20410;-61
2021/12/07 10:59:06;;;;;;;18.10;4.87;;;;;;;;;;5017711;28;20693;-61
2021/12/07 11:01:33;;;;;;;8.70;4.33;;;;;;;;;;5019553;28;20164;-60
2021/12/07 11:04:18;;;;;;;17.43;5.37;;;;;;;;;;5017742;28;20191;-63
2021/12/07 11:07:02;;;;;;;10.60;4.57;;;;;;;;;;5019108;28;20182;-61
2021/12/07 11:09:28;;;;;;;15.40;5.63;;;;;;;;;;5019478;28;20670;-60
2021/12/07 11:12:07;;;;;;;12.47;5.30;;;;;;;;;;5018879;28;20198;-60
2021/12/07 11:14:41;;;;;;;16.57;6.20;;;;;;;;;;5017360;28;20179;-61
2021/12/07 11:17:10;;;;;;;14.50;4.93;;;;;;;;;;5018570;28;20184;-61
2021/12/07 11:19:36;;;;;;;11.37;4.80;;;;;;;;;;5017071;28;20218;-61
2021/12/07 11:22:03;;;;;;;15.13;5.20;;;;;;;;;;5019502;28;20167;-61
2021/12/07 11:24:39;;;;;;;21.43;5.77;;;;;;;;;;5018386;28;20199;-60
2021/12/07 11:29:58;;;;;;;21.20;4.70;;;;;;;;;;5018392;28;20210;-60
2021/12/07 11:32:24;;;;;;;24.03;10.67;;;;;;;;;;5018586;28;20172;-60
2021/12/07 11:34:50;;;;;;;14.83;4.23;;;;;;;;;;5017295;28;20662;-62
2021/12/07 11:37:16;;;;;;;14.23;4.80;;;;;;;;;;5018192;28;20180;-61
2021/12/07 11:39:49;;;;;;;14.73;4.63;;;;;;;;;;5018459;28;20220;-61
2021/12/07 11:42:20;;;;;;;13.93;5.00;;;;;;;;;;5018292;28;20236;-60
2021/12/07 11:44:49;;;;;;;16.23;5.00;;;;;;;;;;5016524;28;20656;-60
2021/12/07 11:47:15;;;;;;;11.27;5.00;;;;;;;;;;5016490;28;20531;-60
2021/12/07 11:49:41;;;;;;;13.53;5.07;;;;;;;;;;5017411;28;20227;-60
2021/12/07 11:52:08;;;;;;;17.67;6.80;;;;;;;;;;5018362;28;20180;-60
2021/12/07 11:54:35;;;;;;;10.03;3.90;;;;;;;;;;5018052;28;20184;-60
2021/12/07 11:57:02;;;;;;;11.90;4.33;;;;;;;;;;5016871;28;20648;-61
2021/12/07 11:59:28;;;;;;;14.77;4.30;;;;;;;;;;5017580;28;20218;-61
2021/12/07 12:01:54;;;;;;;14.60;4.40;;;;;;;;;;5017461;28;20176;-60
2021/12/07 12:04:21;;;;;;;11.10;4.47;;;;;;;;;;5016183;28;20180;-60
2021/12/07 12:06:48;;;;;;;14.03;4.20;;;;;;;;;;5018308;28;20172;-61
2021/12/07 12:09:14;;;;;;;9.33;3.97;;;;;;;;;;5017450;28;20644;-61
2021/12/07 12:11:42;;;;;;;17.17;4.80;;;;;;;;;;5018513;28;20188;-61
2021/12/07 12:14:21;;;;;;;14.03;4.33;;;;;;;;;;5018359;28;20648;-61
2021/12/07 12:16:47;;;;;;;11.87;3.70;;;;;;;;;;5018353;28;20653;-60
2021/12/07 12:19:23;;;;;;;11.80;3.97;;;;;;;;;;5017573;28;20207;-60
2021/12/07 12:22:08;;;;;;;9.67;4.13;;;;;;;;;;5017750;28;20198;-61
2021/12/07 12:24:44;;;;;;;18.67;4.83;;;;;;;;;;5018631;28;20251;-63
2021/12/07 12:27:16;;;;;;;14.90;4.20;;;;;;;;;;5018461;28;20167;-61
2021/12/07 12:29:43;;;;;;;11.23;4.53;;;;;;;;;;5016883;28;20737;-60
2021/12/07 12:32:09;;;;;;;8.53;3.30;;;;;;;;;;5018225;28;20176;-61
2021/12/07 12:34:37;;;;;;;11.10;4.83;;;;;;;;;;5017915;28;20255;-61
2021/12/07 12:37:10;;;;;;;15.27;4.83;;;;;;;;;;5018843;28;20184;-61
2021/12/07 12:39:41;;;;;;;12.20;5.93;;;;;;;;;;5019056;28;20210;-60
2021/12/07 12:42:07;;;;;;;15.23;4.30;;;;;;;;;;5017346;28;20242;-61
2021/12/07 12:44:37;;;;;;;11.80;6.20;;;;;;;;;;5018967;28;20180;-61
2021/12/07 12:47:04;;;;;;;14.27;7.00;;;;;;;;;;5018654;28;20180;-61
2021/12/07 12:49:43;;;;;;;14.90;5.17;;;;;;;;;;5019241;28;20204;-60
2021/12/07 12:52:09;;;;;;;10.57;5.03;;;;;;;;;;5018856;28;20659;-61
2021/12/07 12:54:42;;;;;;;13.73;6.60;;;;;;;;;;5016707;28;20198;-61
2021/12/07 12:57:13;;;;;;;10.17;3.97;;;;;;;;;;5017458;28;20191;-59
2021/12/07 12:59:41;;;;;;;10.40;4.87;;;;;;;;;;5018262;28;20206;-60
2021/12/07 13:02:07;;;;;;;14.30;4.43;;;;;;;;;;5017116;28;20188;-63
2021/12/07 13:04:34;;;;;;;8.87;3.90;;;;;;;;;;5018601;28;20202;-61
2021/12/07 13:09:39;;;;;;;10.83;4.57;;;;;;;;;;5018430;28;20198;-61
2021/12/07 13:12:05;;;;;;;11.17;5.07;;;;;;;;;;5018498;28;20620;-62
2021/12/07 13:14:33;;;;;;;10.20;4.97;;;;;;;;;;5018396;28;20211;-61
2021/12/07 13:17:07;;;;;;;9.13;4.00;;;;;;;;;;5017816;28;20644;-60
2021/12/07 13:19:53;;;;;;;9.93;4.80;;;;;;;;;;5018037;28;20233;-60
2021/12/07 13:22:19;;;;;;;15.53;3.87;;;;;;;;;;5016555;28;20175;-62
2021/12/07 13:24:48;;;;;;;15.27;3.80;;;;;;;;;;5016195;28;20179;-59
2021/12/07 13:27:16;;;;;;;8.83;4.50;;;;;;;;;;5018505;28;20254;-59
2021/12/07 13:29:46;;;;;;;14.47;3.00;;;;;;;;;;5016475;28;20695;-60
2021/12/07 13:32:12;;;;;;;17.47;3.60;;;;;;;;;;5018751;28;20180;-60
2021/12/07 13:34:39;;;;;;;14.63;3.97;;;;;;;;;;5018091;28;20187;-61
2021/12/07 13:37:06;;;;;;;7.13;3.33;;;;;;;;;;5017724;28;20182;-61
2021/12/07 13:39:35;;;;;;;8.50;3.00;;;;;;;;;;5015497;28;20215;-61
2021/12/07 13:42:24;;;;;;;7.80;3.30;;;;;;;;;;5017569;28;20172;-67
2021/12/07 13:44:56;;;;;;;10.33;3.47;;;;;;;;;;5012594;28;20191;-60
2021/12/07 13:47:23;;;;;;;7.27;3.80;;;;;;;;;;5017420;28;20182;-61
2021/12/07 13:49:52;;;;;;;7.83;3.17;;;;;;;;;;5017229;28;20196;-62
2021/12/07 13:52:20;;;;;;;7.70;3.50;;;;;;;;;;5018074;28;20222;-61
2021/12/07 13:54:48;;;;;;;10.50;3.60;;;;;;;;;;5017674;28;20526;-61
2021/12/07 13:57:19;;;;;;;8.40;3.80;;;;;;;;;;5017186;28;20633;-60
2021/12/07 13:59:55;;;;;;;10.60;4.27;;;;;;;;;;5016885;28;20224;-60
2021/12/07 14:02:22;;;;;;;8.00;3.60;;;;;;;;;;5015748;28;20171;-61
2021/12/07 14:04:48;;;;;;;8.47;3.43;;;;;;;;;;5017732;28;20183;-61
2021/12/07 14:07:17;;;;;;;9.23;3.03;;;;;;;;;;5017977;28;20176;-61
2021/12/07 14:09:43;;;;;;;5.10;2.53;;;;;;;;;;5017193;28;20215;-60
2021/12/07 14:12:09;;;;;;;6.07;2.63;;;;;;;;;;5017165;28;20191;-63
2021/12/07 14:14:35;;;;;;;7.73;2.47;;;;;;;;;;5016287;28;20642;-63
2021/12/07 14:17:01;;;;;;;7.83;3.07;;;;;;;;;;5017544;28;20175;-62
2021/12/07 14:19:27;;;;;;;5.53;2.93;;;;;;;;;;5016659;28;20215;-63
2021/12/07 14:21:53;;;;;;;11.30;3.30;;;;;;;;;;5017460;28;20641;-63
2021/12/07 14:24:20;;;;;;;7.27;2.77;;;;;;;;;;5016806;28;20176;-62
2021/12/07 14:26:47;;;;;;;8.67;3.27;;;;;;;;;;5016809;28;20175;-60
2021/12/07 14:29:15;;;;;;;8.27;2.70;;;;;;;;;;5017155;28;20180;-60
2021/12/07 14:31:42;;;;;;;6.87;2.63;;;;;;;;;;5017470;28;20546;-61
2021/12/07 14:34:10;;;;;;;8.77;2.87;;;;;;;;;;5017167;28;20180;-61
2021/12/07 14:36:44;;;;;;;9.07;2.87;;;;;;;;;;5016266;28;20183;-61
2021/12/07 14:39:12;;;;;;;5.60;2.90;;;;;;;;;;5016501;28;20273;-61
2021/12/07 14:41:43;;;;;;;6.67;2.83;;;;;;;;;;5016341;28;20179;-61
2021/12/07 14:44:10;;;;;;;5.50;2.97;;;;;;;;;;5014660;28;20206;-61
2021/12/07 14:46:37;;;;;;;8.13;2.73;;;;;;;;;;5016744;28;20594;-68
2021/12/07 14:49:03;;;;;;;4.83;3.50;;;;;;;;;;5017522;28;20660;-61
2021/12/07 14:51:30;;;;;;;10.43;2.93;;;;;;;;;;5017134;28;20190;-62
2021/12/07 14:54:01;;;;;;;6.87;2.60;;;;;;;;;;5015756;28;20539;-61
2021/12/07 14:56:27;;;;;;;39.20;22.20;;;;;;;;;;5016088;28;20183;-60
2021/12/07 14:58:55;;;;;;;14.30;8.20;;;;;;;;;;5017034;28;20741;-61
2021/12/07 15:01:31;;;;;;;5.57;3.60;;;;;;;;;;5017007;28;20657;-61
2021/12/07 15:03:58;;;;;;;10.07;4.73;;;;;;;;;;5015630;28;20225;-60
2021/12/07 15:06:27;;;;;;;21.87;14.00;;;;;;;;;;5015077;28;20180;-60
2021/12/07 15:08:53;;;;;;;14.80;6.00;;;;;;;;;;5015608;28;20194;-61
2021/12/07 15:11:19;;;;;;;19.83;11.33;;;;;;;;;;5020131;28;20581;-61
2021/12/07 15:13:45;;;;;;;13.77;6.73;;;;;;;;;;5020011;28;20176;-67
2021/12/07 15:16:12;;;;;;;29.80;17.50;;;;;;;;;;5020258;28;20215;-61
2021/12/07 15:18:41;;;;;;;15.13;8.80;;;;;;;;;;5020323;28;20208;-62
2021/12/07 15:21:07;;;;;;;11.63;6.47;;;;;;;;;;5020177;28;20454;-60
2021/12/07 15:23:34;;;;;;;24.27;14.87;;;;;;;;;;5020233;28;20233;-60
2021/12/07 15:26:00;;;;;;;158.13;76.43;;;;;;;;;;5020532;28;20233;-61
2021/12/07 15:28:26;;;;;;;20.00;11.60;;;;;;;;;;5020102;28;20183;-61
2021/12/07 15:30:54;;;;;;;34.43;19.03;;;;;;;;;;5020484;28;20684;-61
2021/12/07 15:33:20;;;;;;;23.03;14.27;;;;;;;;;;5018994;28;20184;-60
2021/12/07 15:35:47;;;;;;;12.70;4.10;;;;;;;;;;5018382;28;20234;-61
2021/12/07 15:38:20;;;;;;;12.67;5.20;;;;;;;;;;5018502;28;20211;-62
2021/12/07 15:40:47;;;;;;;8.73;3.40;;;;;;;;;;5019870;28;20270;-61
2021/12/07 15:43:13;;;;;;;9.10;3.37;;;;;;;;;;5019570;28;20184;-62
2021/12/07 15:45:41;;;;;;;7.33;3.63;;;;;;;;;;5020053;28;20183;-60
2021/12/07 15:48:08;;;;;;;9.13;3.10;;;;;;;;;;5018492;28;20640;-61
2021/12/07 15:50:35;;;;;;;6.20;4.10;;;;;;;;;;5019493;28;20191;-60
2021/12/07 15:53:08;;;;;;;6.90;3.50;;;;;;;;;;5019799;28;20176;-61
2021/12/07 15:55:36;;;;;;;9.07;4.77;;;;;;;;;;5018445;28;20183;-61
2021/12/07 15:58:06;;;;;;;6.10;2.80;;;;;;;;;;5019679;28;20203;-61
2021/12/07 16:00:37;;;;;;;6.57;3.47;;;;;;;;;;5019169;28;20196;-61
2021/12/07 16:03:07;;;;;;;7.63;3.37;;;;;;;;;;5019249;28;20204;-61
2021/12/07 16:05:34;;;;;;;8.30;3.53;;;;;;;;;;5017791;28;20179;-61
2021/12/07 16:08:07;;;;;;;8.10;3.23;;;;;;;;;;5019122;28;20207;-62
2021/12/07 16:10:35;;;;;;;11.10;3.83;;;;;;;;;;5019615;28;20203;-61
2021/12/07 16:13:08;;;;;;;11.63;3.20;;;;;;;;;;5019685;28;20204;-61
2021/12/07 16:15:34;;;;;;;7.33;3.30;;;;;;;;;;5019287;28;20180;-61
2021/12/07 16:18:01;;;;;;;8.03;4.20;;;;;;;;;;5018073;28;20215;-61
2021/12/07 16:20:27;;;;;;;9.17;2.87;;;;;;;;;;5018296;28;20251;-61